sensor_id;sensor_type;location;lat;lon;timestamp;P1;durP1;ratioP1;P2;durP2;ratioP2
80621;SDS011;69980;51.914;7.526;2023-06-04T00:01:34;2.75;;;1.40;;
80621;SDS011;69980;51.914;7.526;2023-06-04T00:03:59;2.67;;;1.30;;
80621;SDS011;69980;51.914;7.526;2023-06-04T00:06:24;2.85;;;1.50;;
80621;SDS011;69980;51.914;7.526;2023-06-04T00:08:50;2.58;;;1.30;;
80621;SDS011;69980;51.914;7.526;2023-06-04T00:11:15;4.40;;;1.45;;
80621;SDS011;69980;51.914;7.526;2023-06-04T00:13:40;3.83;;;1.50;;
80621;SDS011;69980;51.914;7.526;2023-06-04T00:16:06;4.60;;;1.70;;
80621;SDS011;69980;51.914;7.526;2023-06-04T00:18:31;4.95;;;1.30;;
80621;SDS011;69980;51.914;7.526;2023-06-04T00:20:56;4.75;;;1.48;;
80621;SDS011;69980;51.914;7.526;2023-06-04T00:23:21;3.47;;;1.30;;
80621;SDS011;69980;51.914;7.526;2023-06-04T00:25:47;2.50;;;1.30;;
80621;SDS011;69980;51.914;7.526;2023-06-04T00:28:12;3.45;;;1.27;;
80621;SDS011;69980;51.914;7.526;2023-06-04T00:30:37;3.05;;;1.25;;
80621;SDS011;69980;51.914;7.526;2023-06-04T00:33:03;2.58;;;1.20;;
80621;SDS011;69980;51.914;7.526;2023-06-04T00:35:28;2.10;;;1.20;;
80621;SDS011;69980;51.914;7.526;2023-06-04T00:37:53;3.97;;;1.40;;
80621;SDS011;69980;51.914;7.526;2023-06-04T00:40:19;3.28;;;1.60;;
80621;SDS011;69980;51.914;7.526;2023-06-04T00:42:44;3.45;;;1.75;;
80621;SDS011;69980;51.914;7.526;2023-06-04T00:45:09;5.35;;;1.55;;
80621;SDS011;69980;51.914;7.526;2023-06-04T00:47:35;3.80;;;1.30;;
80621;SDS011;69980;51.914;7.526;2023-06-04T00:50:00;5.05;;;1.80;;
80621;SDS011;69980;51.914;7.526;2023-06-04T00:52:26;4.05;;;1.80;;
80621;SDS011;69980;51.914;7.526;2023-06-04T00:54:52;3.63;;;2.00;;
80621;SDS011;69980;51.914;7.526;2023-06-04T00:57:17;3.90;;;1.88;;
80621;SDS011;69980;51.914;7.526;2023-06-04T00:59:42;3.50;;;1.90;;
80621;SDS011;69980;51.914;7.526;2023-06-04T01:02:16;3.92;;;1.60;;
80621;SDS011;69980;51.914;7.526;2023-06-04T01:04:49;4.55;;;2.00;;
80621;SDS011;69980;51.914;7.526;2023-06-04T01:07:15;5.93;;;1.95;;
80621;SDS011;69980;51.914;7.526;2023-06-04T01:09:41;3.75;;;2.17;;
80621;SDS011;69980;51.914;7.526;2023-06-04T01:12:06;3.22;;;1.67;;
80621;SDS011;69980;51.914;7.526;2023-06-04T01:14:32;5.35;;;2.03;;
80621;SDS011;69980;51.914;7.526;2023-06-04T01:17:02;4.45;;;2.10;;
80621;SDS011;69980;51.914;7.526;2023-06-04T01:27:57;3.42;;;1.58;;
80621;SDS011;69980;51.914;7.526;2023-06-04T01:30:27;3.22;;;1.60;;
80621;SDS011;69980;51.914;7.526;2023-06-04T01:32:55;2.70;;;1.25;;
80621;SDS011;69980;51.914;7.526;2023-06-04T01:35:20;3.90;;;1.40;;
80621;SDS011;69980;51.914;7.526;2023-06-04T01:37:46;4.03;;;1.90;;
80621;SDS011;69980;51.914;7.526;2023-06-04T01:40:12;4.60;;;1.70;;
80621;SDS011;69980;51.914;7.526;2023-06-04T01:42:37;3.63;;;1.60;;
80621;SDS011;69980;51.914;7.526;2023-06-04T01:45:03;3.83;;;1.67;;
80621;SDS011;69980;51.914;7.526;2023-06-04T01:47:28;4.07;;;1.70;;
80621;SDS011;69980;51.914;7.526;2023-06-04T01:49:53;4.03;;;1.60;;
80621;SDS011;69980;51.914;7.526;2023-06-04T01:52:19;3.80;;;1.70;;
80621;SDS011;69980;51.914;7.526;2023-06-04T01:54:44;3.72;;;1.50;;
80621;SDS011;69980;51.914;7.526;2023-06-04T01:57:09;2.95;;;1.55;;
80621;SDS011;69980;51.914;7.526;2023-06-04T01:59:35;3.85;;;1.90;;
80621;SDS011;69980;51.914;7.526;2023-06-04T02:02:00;5.80;;;2.00;;
80621;SDS011;69980;51.914;7.526;2023-06-04T02:04:26;3.63;;;1.90;;
80621;SDS011;69980;51.914;7.526;2023-06-04T02:06:51;3.35;;;1.60;;
80621;SDS011;69980;51.914;7.526;2023-06-04T02:09:16;3.78;;;1.73;;
80621;SDS011;69980;51.914;7.526;2023-06-04T02:11:42;3.92;;;1.98;;
80621;SDS011;69980;51.914;7.526;2023-06-04T02:14:07;4.75;;;1.90;;
80621;SDS011;69980;51.914;7.526;2023-06-04T02:16:32;4.43;;;2.15;;
80621;SDS011;69980;51.914;7.526;2023-06-04T02:18:57;4.38;;;1.70;;
80621;SDS011;69980;51.914;7.526;2023-06-04T02:21:23;3.53;;;1.52;;
80621;SDS011;69980;51.914;7.526;2023-06-04T02:23:48;4.18;;;2.03;;
80621;SDS011;69980;51.914;7.526;2023-06-04T02:26:13;3.28;;;1.90;;
80621;SDS011;69980;51.914;7.526;2023-06-04T02:28:39;3.88;;;1.70;;
80621;SDS011;69980;51.914;7.526;2023-06-04T02:31:04;4.85;;;2.10;;
80621;SDS011;69980;51.914;7.526;2023-06-04T02:33:29;4.80;;;2.38;;
80621;SDS011;69980;51.914;7.526;2023-06-04T02:35:55;3.05;;;1.77;;
80621;SDS011;69980;51.914;7.526;2023-06-04T02:38:20;4.75;;;2.35;;
80621;SDS011;69980;51.914;7.526;2023-06-04T02:40:45;6.95;;;1.95;;
80621;SDS011;69980;51.914;7.526;2023-06-04T02:43:10;3.65;;;1.80;;
80621;SDS011;69980;51.914;7.526;2023-06-04T02:45:36;3.70;;;1.80;;
80621;SDS011;69980;51.914;7.526;2023-06-04T02:48:01;5.45;;;2.10;;
80621;SDS011;69980;51.914;7.526;2023-06-04T02:50:26;2.67;;;1.52;;
80621;SDS011;69980;51.914;7.526;2023-06-04T02:52:52;4.95;;;2.00;;
80621;SDS011;69980;51.914;7.526;2023-06-04T02:55:17;3.60;;;1.83;;
80621;SDS011;69980;51.914;7.526;2023-06-04T02:57:42;2.95;;;1.90;;
80621;SDS011;69980;51.914;7.526;2023-06-04T03:00:09;3.50;;;2.00;;
80621;SDS011;69980;51.914;7.526;2023-06-04T03:02:35;3.50;;;2.20;;
80621;SDS011;69980;51.914;7.526;2023-06-04T03:05:00;4.35;;;2.25;;
80621;SDS011;69980;51.914;7.526;2023-06-04T03:07:26;4.63;;;2.08;;
80621;SDS011;69980;51.914;7.526;2023-06-04T03:09:51;3.60;;;1.95;;
80621;SDS011;69980;51.914;7.526;2023-06-04T03:12:16;4.45;;;2.10;;
80621;SDS011;69980;51.914;7.526;2023-06-04T03:14:41;4.10;;;1.70;;
80621;SDS011;69980;51.914;7.526;2023-06-04T03:17:08;4.28;;;2.53;;
80621;SDS011;69980;51.914;7.526;2023-06-04T03:19:37;5.40;;;2.50;;
80621;SDS011;69980;51.914;7.526;2023-06-04T03:22:03;3.42;;;2.35;;
80621;SDS011;69980;51.914;7.526;2023-06-04T03:24:29;3.55;;;2.13;;
80621;SDS011;69980;51.914;7.526;2023-06-04T03:26:54;4.55;;;2.03;;
80621;SDS011;69980;51.914;7.526;2023-06-04T03:29:20;5.35;;;1.90;;
80621;SDS011;69980;51.914;7.526;2023-06-04T03:31:45;4.40;;;2.08;;
80621;SDS011;69980;51.914;7.526;2023-06-04T03:34:10;5.70;;;2.05;;
80621;SDS011;69980;51.914;7.526;2023-06-04T03:36:35;3.65;;;2.00;;
80621;SDS011;69980;51.914;7.526;2023-06-04T03:39:01;4.18;;;2.10;;
80621;SDS011;69980;51.914;7.526;2023-06-04T03:41:26;3.88;;;2.55;;
80621;SDS011;69980;51.914;7.526;2023-06-04T03:43:51;6.47;;;2.28;;
80621;SDS011;69980;51.914;7.526;2023-06-04T03:46:17;4.20;;;2.40;;
80621;SDS011;69980;51.914;7.526;2023-06-04T03:48:42;4.07;;;2.15;;
80621;SDS011;69980;51.914;7.526;2023-06-04T03:51:07;5.45;;;2.58;;
80621;SDS011;69980;51.914;7.526;2023-06-04T03:53:32;3.65;;;1.98;;
80621;SDS011;69980;51.914;7.526;2023-06-04T03:55:58;5.63;;;2.50;;
80621;SDS011;69980;51.914;7.526;2023-06-04T03:58:23;3.60;;;1.80;;
80621;SDS011;69980;51.914;7.526;2023-06-04T04:00:48;4.30;;;2.30;;
80621;SDS011;69980;51.914;7.526;2023-06-04T04:03:14;4.22;;;2.10;;
80621;SDS011;69980;51.914;7.526;2023-06-04T04:05:39;4.35;;;2.45;;
80621;SDS011;69980;51.914;7.526;2023-06-04T04:08:04;4.43;;;2.20;;
80621;SDS011;69980;51.914;7.526;2023-06-04T04:10:29;7.45;;;2.45;;
80621;SDS011;69980;51.914;7.526;2023-06-04T04:12:55;3.75;;;1.95;;
80621;SDS011;69980;51.914;7.526;2023-06-04T04:15:20;4.78;;;2.50;;
80621;SDS011;69980;51.914;7.526;2023-06-04T04:17:45;4.13;;;2.13;;
80621;SDS011;69980;51.914;7.526;2023-06-04T04:20:11;3.75;;;2.10;;
80621;SDS011;69980;51.914;7.526;2023-06-04T04:22:40;4.65;;;2.42;;
80621;SDS011;69980;51.914;7.526;2023-06-04T04:25:06;4.38;;;2.33;;
80621;SDS011;69980;51.914;7.526;2023-06-04T04:27:31;3.72;;;2.13;;
80621;SDS011;69980;51.914;7.526;2023-06-04T04:29:57;4.40;;;2.25;;
80621;SDS011;69980;51.914;7.526;2023-06-04T04:32:22;6.20;;;2.03;;
80621;SDS011;69980;51.914;7.526;2023-06-04T04:34:50;4.57;;;2.45;;
80621;SDS011;69980;51.914;7.526;2023-06-04T04:37:17;5.13;;;2.17;;
80621;SDS011;69980;51.914;7.526;2023-06-04T04:39:42;2.80;;;1.95;;
80621;SDS011;69980;51.914;7.526;2023-06-04T04:42:07;4.32;;;2.63;;
80621;SDS011;69980;51.914;7.526;2023-06-04T04:44:33;4.53;;;2.13;;
80621;SDS011;69980;51.914;7.526;2023-06-04T04:46:58;6.60;;;2.80;;
80621;SDS011;69980;51.914;7.526;2023-06-04T04:49:23;4.75;;;2.60;;
80621;SDS011;69980;51.914;7.526;2023-06-04T04:51:49;5.30;;;2.63;;
80621;SDS011;69980;51.914;7.526;2023-06-04T04:54:14;3.17;;;2.05;;
80621;SDS011;69980;51.914;7.526;2023-06-04T04:56:39;3.45;;;2.38;;
80621;SDS011;69980;51.914;7.526;2023-06-04T04:59:04;4.38;;;2.42;;
80621;SDS011;69980;51.914;7.526;2023-06-04T05:01:30;6.70;;;2.30;;
80621;SDS011;69980;51.914;7.526;2023-06-04T05:03:55;4.03;;;2.30;;
80621;SDS011;69980;51.914;7.526;2023-06-04T05:06:20;5.80;;;2.50;;
80621;SDS011;69980;51.914;7.526;2023-06-04T05:08:46;3.40;;;2.25;;
80621;SDS011;69980;51.914;7.526;2023-06-04T05:11:11;4.78;;;2.30;;
80621;SDS011;69980;51.914;7.526;2023-06-04T05:13:36;5.90;;;2.42;;
80621;SDS011;69980;51.914;7.526;2023-06-04T05:16:02;5.10;;;2.70;;
80621;SDS011;69980;51.914;7.526;2023-06-04T05:18:27;4.90;;;2.75;;
80621;SDS011;69980;51.914;7.526;2023-06-04T05:20:53;4.85;;;2.30;;
80621;SDS011;69980;51.914;7.526;2023-06-04T05:23:18;4.15;;;2.28;;
80621;SDS011;69980;51.914;7.526;2023-06-04T05:25:43;4.10;;;1.75;;
80621;SDS011;69980;51.914;7.526;2023-06-04T05:28:09;4.05;;;2.30;;
80621;SDS011;69980;51.914;7.526;2023-06-04T05:30:34;3.70;;;2.08;;
80621;SDS011;69980;51.914;7.526;2023-06-04T05:32:59;3.38;;;2.10;;
80621;SDS011;69980;51.914;7.526;2023-06-04T05:35:25;3.25;;;2.13;;
80621;SDS011;69980;51.914;7.526;2023-06-04T05:37:50;4.35;;;2.10;;
80621;SDS011;69980;51.914;7.526;2023-06-04T05:40:15;4.32;;;2.03;;
80621;SDS011;69980;51.914;7.526;2023-06-04T05:42:40;4.30;;;2.28;;
80621;SDS011;69980;51.914;7.526;2023-06-04T05:45:06;4.45;;;2.13;;
80621;SDS011;69980;51.914;7.526;2023-06-04T05:47:32;4.30;;;2.47;;
80621;SDS011;69980;51.914;7.526;2023-06-04T05:49:57;3.78;;;2.50;;
80621;SDS011;69980;51.914;7.526;2023-06-04T05:52:23;3.67;;;1.90;;
80621;SDS011;69980;51.914;7.526;2023-06-04T05:54:48;3.65;;;2.22;;
80621;SDS011;69980;51.914;7.526;2023-06-04T05:57:14;3.22;;;1.92;;
80621;SDS011;69980;51.914;7.526;2023-06-04T05:59:39;4.00;;;2.00;;
80621;SDS011;69980;51.914;7.526;2023-06-04T06:02:04;3.28;;;2.00;;
80621;SDS011;69980;51.914;7.526;2023-06-04T06:04:30;4.57;;;2.10;;
80621;SDS011;69980;51.914;7.526;2023-06-04T06:06:55;5.85;;;2.20;;
80621;SDS011;69980;51.914;7.526;2023-06-04T06:09:20;3.97;;;2.13;;
80621;SDS011;69980;51.914;7.526;2023-06-04T06:11:45;5.10;;;1.95;;
80621;SDS011;69980;51.914;7.526;2023-06-04T06:14:11;4.53;;;1.90;;
80621;SDS011;69980;51.914;7.526;2023-06-04T06:16:36;3.38;;;1.80;;
80621;SDS011;69980;51.914;7.526;2023-06-04T06:19:01;6.07;;;2.10;;
80621;SDS011;69980;51.914;7.526;2023-06-04T06:21:27;3.45;;;2.00;;
80621;SDS011;69980;51.914;7.526;2023-06-04T06:23:53;3.70;;;1.85;;
80621;SDS011;69980;51.914;7.526;2023-06-04T06:26:18;3.92;;;2.20;;
80621;SDS011;69980;51.914;7.526;2023-06-04T06:28:44;3.50;;;2.00;;
80621;SDS011;69980;51.914;7.526;2023-06-04T06:31:09;5.05;;;2.20;;
80621;SDS011;69980;51.914;7.526;2023-06-04T06:33:34;5.32;;;1.90;;
80621;SDS011;69980;51.914;7.526;2023-06-04T06:36:00;3.45;;;1.90;;
80621;SDS011;69980;51.914;7.526;2023-06-04T06:38:25;2.85;;;1.65;;
80621;SDS011;69980;51.914;7.526;2023-06-04T06:40:51;6.05;;;2.30;;
80621;SDS011;69980;51.914;7.526;2023-06-04T06:43:16;3.53;;;1.75;;
80621;SDS011;69980;51.914;7.526;2023-06-04T06:45:42;3.00;;;2.00;;
80621;SDS011;69980;51.914;7.526;2023-06-04T06:48:07;3.97;;;2.00;;
80621;SDS011;69980;51.914;7.526;2023-06-04T06:50:32;4.18;;;1.60;;
80621;SDS011;69980;51.914;7.526;2023-06-04T06:52:58;3.95;;;1.50;;
80621;SDS011;69980;51.914;7.526;2023-06-04T06:55:23;5.50;;;1.73;;
80621;SDS011;69980;51.914;7.526;2023-06-04T06:57:48;5.18;;;2.08;;
80621;SDS011;69980;51.914;7.526;2023-06-04T07:00:14;4.15;;;1.75;;
80621;SDS011;69980;51.914;7.526;2023-06-04T07:02:39;4.00;;;1.52;;
80621;SDS011;69980;51.914;7.526;2023-06-04T07:05:04;5.28;;;1.70;;
80621;SDS011;69980;51.914;7.526;2023-06-04T07:07:30;4.65;;;1.80;;
80621;SDS011;69980;51.914;7.526;2023-06-04T07:09:55;5.25;;;1.58;;
80621;SDS011;69980;51.914;7.526;2023-06-04T07:12:20;4.70;;;1.92;;
80621;SDS011;69980;51.914;7.526;2023-06-04T07:14:46;4.63;;;1.50;;
80621;SDS011;69980;51.914;7.526;2023-06-04T07:17:11;5.35;;;1.58;;
80621;SDS011;69980;51.914;7.526;2023-06-04T07:19:36;3.28;;;1.60;;
80621;SDS011;69980;51.914;7.526;2023-06-04T07:22:02;3.03;;;1.63;;
80621;SDS011;69980;51.914;7.526;2023-06-04T07:24:27;4.05;;;1.60;;
80621;SDS011;69980;51.914;7.526;2023-06-04T07:26:53;3.67;;;1.90;;
80621;SDS011;69980;51.914;7.526;2023-06-04T07:29:18;3.53;;;1.42;;
80621;SDS011;69980;51.914;7.526;2023-06-04T07:31:43;4.47;;;1.60;;
80621;SDS011;69980;51.914;7.526;2023-06-04T07:34:08;4.60;;;1.65;;
80621;SDS011;69980;51.914;7.526;2023-06-04T07:36:34;3.60;;;1.35;;
80621;SDS011;69980;51.914;7.526;2023-06-04T07:38:59;3.08;;;1.55;;
80621;SDS011;69980;51.914;7.526;2023-06-04T07:41:25;3.67;;;1.55;;
80621;SDS011;69980;51.914;7.526;2023-06-04T07:43:50;4.00;;;1.65;;
80621;SDS011;69980;51.914;7.526;2023-06-04T07:46:15;3.20;;;1.70;;
80621;SDS011;69980;51.914;7.526;2023-06-04T07:48:40;3.20;;;1.75;;
80621;SDS011;69980;51.914;7.526;2023-06-04T07:51:06;3.47;;;1.58;;
80621;SDS011;69980;51.914;7.526;2023-06-04T07:53:31;4.50;;;1.42;;
80621;SDS011;69980;51.914;7.526;2023-06-04T07:55:56;3.75;;;1.63;;
80621;SDS011;69980;51.914;7.526;2023-06-04T07:58:22;5.22;;;1.70;;
80621;SDS011;69980;51.914;7.526;2023-06-04T08:00:47;5.55;;;1.42;;
80621;SDS011;69980;51.914;7.526;2023-06-04T08:03:13;2.88;;;1.30;;
80621;SDS011;69980;51.914;7.526;2023-06-04T08:05:38;2.65;;;1.40;;
80621;SDS011;69980;51.914;7.526;2023-06-04T08:08:03;4.80;;;1.60;;
80621;SDS011;69980;51.914;7.526;2023-06-04T08:10:29;3.85;;;1.50;;
80621;SDS011;69980;51.914;7.526;2023-06-04T08:12:55;4.18;;;1.30;;
80621;SDS011;69980;51.914;7.526;2023-06-04T08:15:20;2.42;;;1.00;;
80621;SDS011;69980;51.914;7.526;2023-06-04T08:17:46;4.47;;;1.35;;
80621;SDS011;69980;51.914;7.526;2023-06-04T08:20:11;4.50;;;1.23;;
80621;SDS011;69980;51.914;7.526;2023-06-04T08:22:36;3.88;;;1.23;;
80621;SDS011;69980;51.914;7.526;2023-06-04T08:25:02;2.53;;;1.05;;
80621;SDS011;69980;51.914;7.526;2023-06-04T08:27:27;5.15;;;1.40;;
80621;SDS011;69980;51.914;7.526;2023-06-04T08:29:53;3.75;;;1.30;;
80621;SDS011;69980;51.914;7.526;2023-06-04T08:32:18;2.78;;;1.00;;
80621;SDS011;69980;51.914;7.526;2023-06-04T08:34:43;3.30;;;1.20;;
80621;SDS011;69980;51.914;7.526;2023-06-04T08:37:09;3.30;;;1.38;;
80621;SDS011;69980;51.914;7.526;2023-06-04T08:39:34;4.22;;;1.35;;
80621;SDS011;69980;51.914;7.526;2023-06-04T08:42:00;3.08;;;1.17;;
80621;SDS011;69980;51.914;7.526;2023-06-04T08:44:27;4.28;;;1.20;;
80621;SDS011;69980;51.914;7.526;2023-06-04T08:46:52;5.10;;;1.40;;
80621;SDS011;69980;51.914;7.526;2023-06-04T08:49:18;3.33;;;0.98;;
80621;SDS011;69980;51.914;7.526;2023-06-04T08:51:44;4.60;;;1.20;;
80621;SDS011;69980;51.914;7.526;2023-06-04T08:54:09;2.33;;;1.00;;
80621;SDS011;69980;51.914;7.526;2023-06-04T08:56:36;3.03;;;1.10;;
80621;SDS011;69980;51.914;7.526;2023-06-04T08:59:02;3.97;;;1.00;;
80621;SDS011;69980;51.914;7.526;2023-06-04T09:01:30;4.45;;;0.90;;
80621;SDS011;69980;51.914;7.526;2023-06-04T09:03:56;2.47;;;1.00;;
80621;SDS011;69980;51.914;7.526;2023-06-04T09:06:23;3.58;;;0.88;;
80621;SDS011;69980;51.914;7.526;2023-06-04T09:08:50;2.83;;;0.90;;
80621;SDS011;69980;51.914;7.526;2023-06-04T09:11:15;2.35;;;0.90;;
80621;SDS011;69980;51.914;7.526;2023-06-04T09:13:41;2.60;;;1.10;;
80621;SDS011;69980;51.914;7.526;2023-06-04T09:16:08;2.35;;;1.00;;
80621;SDS011;69980;51.914;7.526;2023-06-04T09:18:33;5.50;;;1.10;;
80621;SDS011;69980;51.914;7.526;2023-06-04T09:21:02;2.88;;;1.00;;
80621;SDS011;69980;51.914;7.526;2023-06-04T09:23:45;3.60;;;0.90;;
80621;SDS011;69980;51.914;7.526;2023-06-04T09:26:12;2.97;;;1.10;;
80621;SDS011;69980;51.914;7.526;2023-06-04T09:28:40;3.15;;;1.10;;
80621;SDS011;69980;51.914;7.526;2023-06-04T09:31:07;2.60;;;0.90;;
80621;SDS011;69980;51.914;7.526;2023-06-04T09:33:46;3.20;;;0.90;;
80621;SDS011;69980;51.914;7.526;2023-06-04T09:36:14;3.15;;;1.10;;
80621;SDS011;69980;51.914;7.526;2023-06-04T09:38:39;3.25;;;1.17;;
80621;SDS011;69980;51.914;7.526;2023-06-04T09:41:10;2.17;;;0.70;;
80621;SDS011;69980;51.914;7.526;2023-06-04T09:43:39;3.50;;;1.00;;
80621;SDS011;69980;51.914;7.526;2023-06-04T09:46:12;2.13;;;0.95;;
80621;SDS011;69980;51.914;7.526;2023-06-04T09:48:42;3.20;;;0.90;;
80621;SDS011;69980;51.914;7.526;2023-06-04T09:51:11;2.75;;;1.00;;
80621;SDS011;69980;51.914;7.526;2023-06-04T09:53:38;4.63;;;0.90;;
80621;SDS011;69980;51.914;7.526;2023-06-04T09:56:04;2.92;;;0.70;;
80621;SDS011;69980;51.914;7.526;2023-06-04T09:58:30;4.05;;;1.00;;
80621;SDS011;69980;51.914;7.526;2023-06-04T10:00:56;2.78;;;0.90;;
80621;SDS011;69980;51.914;7.526;2023-06-04T10:03:23;2.28;;;0.90;;
80621;SDS011;69980;51.914;7.526;2023-06-04T10:05:49;4.82;;;1.05;;
80621;SDS011;69980;51.914;7.526;2023-06-04T10:08:15;2.17;;;0.73;;
80621;SDS011;69980;51.914;7.526;2023-06-04T10:10:42;4.15;;;1.00;;
80621;SDS011;69980;51.914;7.526;2023-06-04T10:13:14;3.08;;;0.90;;
80621;SDS011;69980;51.914;7.526;2023-06-04T10:15:41;2.22;;;0.80;;
80621;SDS011;69980;51.914;7.526;2023-06-04T10:18:07;2.45;;;0.75;;
80621;SDS011;69980;51.914;7.526;2023-06-04T10:20:33;1.80;;;0.70;;
80621;SDS011;69980;51.914;7.526;2023-06-04T10:22:58;1.58;;;0.68;;
80621;SDS011;69980;51.914;7.526;2023-06-04T10:25:25;4.25;;;0.88;;
80621;SDS011;69980;51.914;7.526;2023-06-04T10:27:51;3.22;;;0.90;;
80621;SDS011;69980;51.914;7.526;2023-06-04T10:30:17;3.10;;;1.00;;
80621;SDS011;69980;51.914;7.526;2023-06-04T10:32:42;1.92;;;0.80;;
80621;SDS011;69980;51.914;7.526;2023-06-04T10:35:07;3.05;;;0.88;;
80621;SDS011;69980;51.914;7.526;2023-06-04T10:37:33;3.22;;;0.80;;
80621;SDS011;69980;51.914;7.526;2023-06-04T10:39:59;1.50;;;0.70;;
80621;SDS011;69980;51.914;7.526;2023-06-04T10:42:24;2.20;;;0.80;;
80621;SDS011;69980;51.914;7.526;2023-06-04T10:44:51;2.80;;;0.85;;
80621;SDS011;69980;51.914;7.526;2023-06-04T10:47:21;4.38;;;0.88;;
80621;SDS011;69980;51.914;7.526;2023-06-04T10:49:47;2.00;;;0.90;;
80621;SDS011;69980;51.914;7.526;2023-06-04T10:52:14;3.70;;;0.90;;
80621;SDS011;69980;51.914;7.526;2023-06-04T10:54:40;2.05;;;0.70;;
80621;SDS011;69980;51.914;7.526;2023-06-04T10:57:10;3.67;;;0.80;;
80621;SDS011;69980;51.914;7.526;2023-06-04T10:59:36;2.25;;;0.80;;
80621;SDS011;69980;51.914;7.526;2023-06-04T11:02:05;2.53;;;0.60;;
80621;SDS011;69980;51.914;7.526;2023-06-04T11:04:31;3.08;;;0.60;;
80621;SDS011;69980;51.914;7.526;2023-06-04T11:07:00;3.72;;;0.98;;
80621;SDS011;69980;51.914;7.526;2023-06-04T11:09:29;2.20;;;0.70;;
80621;SDS011;69980;51.914;7.526;2023-06-04T11:11:58;2.80;;;0.70;;
80621;SDS011;69980;51.914;7.526;2023-06-04T11:14:24;1.80;;;0.70;;
80621;SDS011;69980;51.914;7.526;2023-06-04T11:16:49;3.78;;;0.80;;
80621;SDS011;69980;51.914;7.526;2023-06-04T11:19:14;2.50;;;0.77;;
80621;SDS011;69980;51.914;7.526;2023-06-04T11:21:40;2.50;;;0.73;;
80621;SDS011;69980;51.914;7.526;2023-06-04T11:24:05;1.77;;;0.70;;
80621;SDS011;69980;51.914;7.526;2023-06-04T11:26:34;2.35;;;0.75;;
80621;SDS011;69980;51.914;7.526;2023-06-04T11:29:00;1.90;;;0.60;;
80621;SDS011;69980;51.914;7.526;2023-06-04T11:31:26;2.58;;;0.77;;
80621;SDS011;69980;51.914;7.526;2023-06-04T11:33:52;2.38;;;0.80;;
80621;SDS011;69980;51.914;7.526;2023-06-04T11:38:59;3.10;;;0.75;;
80621;SDS011;69980;51.914;7.526;2023-06-04T11:41:31;2.63;;;0.70;;
80621;SDS011;69980;51.914;7.526;2023-06-04T11:44:01;1.90;;;0.77;;
80621;SDS011;69980;51.914;7.526;2023-06-04T11:46:28;3.55;;;0.90;;
80621;SDS011;69980;51.914;7.526;2023-06-04T11:48:53;1.65;;;0.70;;
80621;SDS011;69980;51.914;7.526;2023-06-04T11:51:19;2.28;;;0.90;;
80621;SDS011;69980;51.914;7.526;2023-06-04T11:53:45;2.75;;;0.82;;
80621;SDS011;69980;51.914;7.526;2023-06-04T11:56:10;2.30;;;0.90;;
80621;SDS011;69980;51.914;7.526;2023-06-04T11:58:36;3.13;;;0.80;;
80621;SDS011;69980;51.914;7.526;2023-06-04T12:01:01;3.38;;;0.82;;
80621;SDS011;69980;51.914;7.526;2023-06-04T12:03:34;3.83;;;0.93;;
80621;SDS011;69980;51.914;7.526;2023-06-04T12:06:08;3.75;;;0.90;;
80621;SDS011;69980;51.914;7.526;2023-06-04T12:11:28;2.28;;;0.80;;
80621;SDS011;69980;51.914;7.526;2023-06-04T12:13:55;2.55;;;0.90;;
80621;SDS011;69980;51.914;7.526;2023-06-04T12:16:21;3.70;;;1.05;;
80621;SDS011;69980;51.914;7.526;2023-06-04T12:18:46;3.40;;;0.90;;
80621;SDS011;69980;51.914;7.526;2023-06-04T12:21:20;2.60;;;0.70;;
80621;SDS011;69980;51.914;7.526;2023-06-04T12:23:46;3.70;;;0.70;;
80621;SDS011;69980;51.914;7.526;2023-06-04T12:26:21;3.67;;;0.80;;
80621;SDS011;69980;51.914;7.526;2023-06-04T12:28:57;2.58;;;0.93;;
80621;SDS011;69980;51.914;7.526;2023-06-04T12:31:23;3.80;;;0.80;;
80621;SDS011;69980;51.914;7.526;2023-06-04T12:33:49;3.10;;;0.80;;
80621;SDS011;69980;51.914;7.526;2023-06-04T12:36:14;2.67;;;0.80;;
80621;SDS011;69980;51.914;7.526;2023-06-04T12:38:39;3.75;;;1.00;;
80621;SDS011;69980;51.914;7.526;2023-06-04T12:41:05;4.25;;;0.80;;
80621;SDS011;69980;51.914;7.526;2023-06-04T12:43:30;2.47;;;0.80;;
80621;SDS011;69980;51.914;7.526;2023-06-04T12:45:55;2.22;;;0.80;;
80621;SDS011;69980;51.914;7.526;2023-06-04T12:48:21;1.45;;;0.60;;
80621;SDS011;69980;51.914;7.526;2023-06-04T12:50:46;3.15;;;0.70;;
80621;SDS011;69980;51.914;7.526;2023-06-04T12:53:11;2.38;;;0.70;;
80621;SDS011;69980;51.914;7.526;2023-06-04T12:55:36;2.10;;;0.70;;
80621;SDS011;69980;51.914;7.526;2023-06-04T12:58:02;3.92;;;0.68;;
80621;SDS011;69980;51.914;7.526;2023-06-04T13:00:27;4.53;;;0.70;;
80621;SDS011;69980;51.914;7.526;2023-06-04T13:02:52;3.10;;;0.80;;
80621;SDS011;69980;51.914;7.526;2023-06-04T13:05:18;2.55;;;0.65;;
80621;SDS011;69980;51.914;7.526;2023-06-04T13:07:43;1.88;;;0.73;;
80621;SDS011;69980;51.914;7.526;2023-06-04T13:10:09;3.15;;;0.90;;
80621;SDS011;69980;51.914;7.526;2023-06-04T13:12:34;2.90;;;0.80;;
80621;SDS011;69980;51.914;7.526;2023-06-04T13:14:59;2.78;;;0.70;;
80621;SDS011;69980;51.914;7.526;2023-06-04T13:17:24;3.00;;;0.80;;
80621;SDS011;69980;51.914;7.526;2023-06-04T13:19:50;2.40;;;0.93;;
80621;SDS011;69980;51.914;7.526;2023-06-04T13:22:15;2.72;;;0.88;;
80621;SDS011;69980;51.914;7.526;2023-06-04T13:24:40;2.40;;;0.80;;
80621;SDS011;69980;51.914;7.526;2023-06-04T13:27:06;1.88;;;0.90;;
80621;SDS011;69980;51.914;7.526;2023-06-04T13:29:31;3.88;;;0.80;;
80621;SDS011;69980;51.914;7.526;2023-06-04T13:31:56;3.03;;;0.95;;
80621;SDS011;69980;51.914;7.526;2023-06-04T13:34:22;4.05;;;0.70;;
80621;SDS011;69980;51.914;7.526;2023-06-04T13:36:47;1.90;;;0.70;;
80621;SDS011;69980;51.914;7.526;2023-06-04T13:39:12;3.53;;;0.80;;
80621;SDS011;69980;51.914;7.526;2023-06-04T13:41:38;1.90;;;0.70;;
80621;SDS011;69980;51.914;7.526;2023-06-04T13:44:03;3.60;;;0.98;;
80621;SDS011;69980;51.914;7.526;2023-06-04T13:46:28;4.10;;;1.00;;
80621;SDS011;69980;51.914;7.526;2023-06-04T13:48:53;3.40;;;1.00;;
80621;SDS011;69980;51.914;7.526;2023-06-04T13:51:19;4.30;;;0.95;;
80621;SDS011;69980;51.914;7.526;2023-06-04T13:53:44;2.38;;;0.80;;
80621;SDS011;69980;51.914;7.526;2023-06-04T13:56:09;1.80;;;0.80;;
80621;SDS011;69980;51.914;7.526;2023-06-04T13:58:35;2.05;;;0.88;;
80621;SDS011;69980;51.914;7.526;2023-06-04T14:01:01;2.72;;;0.80;;
80621;SDS011;69980;51.914;7.526;2023-06-04T14:03:26;5.13;;;1.10;;
80621;SDS011;69980;51.914;7.526;2023-06-04T14:05:52;2.05;;;0.80;;
80621;SDS011;69980;51.914;7.526;2023-06-04T14:08:17;2.78;;;0.82;;
80621;SDS011;69980;51.914;7.526;2023-06-04T14:10:42;2.17;;;0.70;;
80621;SDS011;69980;51.914;7.526;2023-06-04T14:13:08;2.70;;;1.10;;
80621;SDS011;69980;51.914;7.526;2023-06-04T14:15:34;1.90;;;0.73;;
80621;SDS011;69980;51.914;7.526;2023-06-04T14:17:59;3.25;;;0.95;;
80621;SDS011;69980;51.914;7.526;2023-06-04T14:20:24;2.03;;;0.80;;
80621;SDS011;69980;51.914;7.526;2023-06-04T14:22:50;3.85;;;0.82;;
80621;SDS011;69980;51.914;7.526;2023-06-04T14:25:15;2.90;;;0.80;;
80621;SDS011;69980;51.914;7.526;2023-06-04T14:27:40;2.97;;;0.70;;
80621;SDS011;69980;51.914;7.526;2023-06-04T14:30:06;3.00;;;1.00;;
80621;SDS011;69980;51.914;7.526;2023-06-04T14:32:32;2.50;;;0.95;;
80621;SDS011;69980;51.914;7.526;2023-06-04T14:34:57;2.47;;;1.15;;
80621;SDS011;69980;51.914;7.526;2023-06-04T14:37:22;2.45;;;0.98;;
80621;SDS011;69980;51.914;7.526;2023-06-04T14:39:48;3.42;;;0.98;;
80621;SDS011;69980;51.914;7.526;2023-06-04T14:42:15;2.05;;;0.80;;
80621;SDS011;69980;51.914;7.526;2023-06-04T14:44:40;2.22;;;0.70;;
80621;SDS011;69980;51.914;7.526;2023-06-04T14:47:06;2.28;;;0.88;;
80621;SDS011;69980;51.914;7.526;2023-06-04T14:49:31;2.78;;;0.88;;
80621;SDS011;69980;51.914;7.526;2023-06-04T14:51:57;3.83;;;0.90;;
80621;SDS011;69980;51.914;7.526;2023-06-04T14:54:22;2.40;;;0.80;;